sensor_id;sensor_type;location;lat;lon;timestamp;P1;durP1;ratioP1;P2;durP2;ratioP2
29838;SDS011;18669;53.356;-1.464;2023-04-15T00:00:31;11.93;;;8.75;;
29838;SDS011;18669;53.356;-1.464;2023-04-15T00:03:17;13.40;;;9.68;;
29838;SDS011;18669;53.356;-1.464;2023-04-15T00:06:02;13.80;;;8.90;;
29838;SDS011;18669;53.356;-1.464;2023-04-15T00:08:47;11.48;;;8.23;;
29838;SDS011;18669;53.356;-1.464;2023-04-15T00:11:32;14.82;;;8.30;;
29838;SDS011;18669;53.356;-1.464;2023-04-15T00:14:17;11.30;;;7.70;;
29838;SDS011;18669;53.356;-1.464;2023-04-15T00:17:02;12.73;;;8.27;;
29838;SDS011;18669;53.356;-1.464;2023-04-15T00:19:47;11.27;;;8.38;;
29838;SDS011;18669;53.356;-1.464;2023-04-15T00:22:32;14.48;;;8.70;;
29838;SDS011;18669;53.356;-1.464;2023-04-15T00:25:17;13.27;;;9.00;;
29838;SDS011;18669;53.356;-1.464;2023-04-15T00:28:02;13.18;;;9.15;;
29838;SDS011;18669;53.356;-1.464;2023-04-15T00:30:47;14.73;;;9.77;;
29838;SDS011;18669;53.356;-1.464;2023-04-15T00:33:32;15.00;;;9.63;;
29838;SDS011;18669;53.356;-1.464;2023-04-15T00:36:17;13.23;;;9.25;;
29838;SDS011;18669;53.356;-1.464;2023-04-15T00:39:01;14.00;;;9.32;;
29838;SDS011;18669;53.356;-1.464;2023-04-15T00:41:46;14.43;;;9.07;;
29838;SDS011;18669;53.356;-1.464;2023-04-15T00:44:32;15.25;;;9.75;;
29838;SDS011;18669;53.356;-1.464;2023-04-15T00:47:17;14.10;;;8.98;;
29838;SDS011;18669;53.356;-1.464;2023-04-15T00:50:04;14.50;;;9.40;;
29838;SDS011;18669;53.356;-1.464;2023-04-15T00:52:49;13.57;;;9.30;;
29838;SDS011;18669;53.356;-1.464;2023-04-15T00:55:34;13.70;;;9.25;;
29838;SDS011;18669;53.356;-1.464;2023-04-15T00:58:19;15.98;;;9.85;;
29838;SDS011;18669;53.356;-1.464;2023-04-15T01:01:04;14.80;;;9.55;;
29838;SDS011;18669;53.356;-1.464;2023-04-15T01:03:49;16.40;;;10.35;;
29838;SDS011;18669;53.356;-1.464;2023-04-15T01:06:35;14.85;;;9.73;;
29838;SDS011;18669;53.356;-1.464;2023-04-15T01:09:19;16.30;;;9.48;;
29838;SDS011;18669;53.356;-1.464;2023-04-15T01:12:04;13.15;;;9.15;;
29838;SDS011;18669;53.356;-1.464;2023-04-15T01:14:50;16.33;;;10.00;;
29838;SDS011;18669;53.356;-1.464;2023-04-15T01:17:36;14.93;;;10.02;;
29838;SDS011;18669;53.356;-1.464;2023-04-15T01:20:21;15.15;;;9.70;;
29838;SDS011;18669;53.356;-1.464;2023-04-15T01:23:06;14.90;;;10.43;;
29838;SDS011;18669;53.356;-1.464;2023-04-15T01:25:51;15.20;;;10.45;;
29838;SDS011;18669;53.356;-1.464;2023-04-15T01:28:37;13.77;;;10.05;;
29838;SDS011;18669;53.356;-1.464;2023-04-15T01:31:22;16.35;;;10.02;;
29838;SDS011;18669;53.356;-1.464;2023-04-15T01:34:07;16.63;;;10.98;;
29838;SDS011;18669;53.356;-1.464;2023-04-15T01:36:52;17.58;;;11.90;;
29838;SDS011;18669;53.356;-1.464;2023-04-15T01:39:36;17.38;;;10.70;;
29838;SDS011;18669;53.356;-1.464;2023-04-15T01:42:22;18.23;;;11.40;;
29838;SDS011;18669;53.356;-1.464;2023-04-15T01:45:08;16.15;;;10.70;;
29838;SDS011;18669;53.356;-1.464;2023-04-15T01:47:53;16.00;;;10.65;;
29838;SDS011;18669;53.356;-1.464;2023-04-15T01:50:38;14.07;;;10.65;;
29838;SDS011;18669;53.356;-1.464;2023-04-15T01:53:23;14.52;;;9.32;;
29838;SDS011;18669;53.356;-1.464;2023-04-15T01:56:08;12.38;;;9.05;;
29838;SDS011;18669;53.356;-1.464;2023-04-15T01:58:53;14.77;;;8.95;;
29838;SDS011;18669;53.356;-1.464;2023-04-15T02:01:38;12.65;;;8.93;;
29838;SDS011;18669;53.356;-1.464;2023-04-15T02:04:23;13.55;;;10.18;;
29838;SDS011;18669;53.356;-1.464;2023-04-15T02:07:07;14.57;;;9.85;;
29838;SDS011;18669;53.356;-1.464;2023-04-15T02:09:53;16.23;;;11.15;;
29838;SDS011;18669;53.356;-1.464;2023-04-15T02:12:38;16.85;;;10.98;;
29838;SDS011;18669;53.356;-1.464;2023-04-15T02:15:23;20.80;;;10.88;;
29838;SDS011;18669;53.356;-1.464;2023-04-15T02:18:08;18.52;;;12.15;;
29838;SDS011;18669;53.356;-1.464;2023-04-15T02:20:53;17.17;;;11.13;;
29838;SDS011;18669;53.356;-1.464;2023-04-15T02:23:39;16.35;;;10.95;;
29838;SDS011;18669;53.356;-1.464;2023-04-15T02:26:24;16.50;;;10.55;;
29838;SDS011;18669;53.356;-1.464;2023-04-15T02:29:09;14.50;;;10.25;;
29838;SDS011;18669;53.356;-1.464;2023-04-15T02:31:54;16.88;;;10.65;;
29838;SDS011;18669;53.356;-1.464;2023-04-15T02:34:40;14.27;;;10.13;;
29838;SDS011;18669;53.356;-1.464;2023-04-15T02:37:25;13.63;;;9.20;;
29838;SDS011;18669;53.356;-1.464;2023-04-15T02:40:11;14.48;;;9.95;;
29838;SDS011;18669;53.356;-1.464;2023-04-15T02:42:56;12.88;;;8.88;;
29838;SDS011;18669;53.356;-1.464;2023-04-15T02:45:41;12.77;;;8.77;;
29838;SDS011;18669;53.356;-1.464;2023-04-15T02:48:26;11.85;;;9.00;;
29838;SDS011;18669;53.356;-1.464;2023-04-15T02:54:00;13.30;;;8.48;;
29838;SDS011;18669;53.356;-1.464;2023-04-15T02:56:45;12.65;;;8.90;;
29838;SDS011;18669;53.356;-1.464;2023-04-15T02:59:30;12.48;;;9.05;;
29838;SDS011;18669;53.356;-1.464;2023-04-15T03:02:15;12.45;;;7.78;;
29838;SDS011;18669;53.356;-1.464;2023-04-15T03:05:00;11.27;;;7.90;;
29838;SDS011;18669;53.356;-1.464;2023-04-15T03:07:45;11.63;;;7.78;;
29838;SDS011;18669;53.356;-1.464;2023-04-15T03:10:29;8.50;;;6.75;;
29838;SDS011;18669;53.356;-1.464;2023-04-15T03:13:14;8.07;;;6.68;;
29838;SDS011;18669;53.356;-1.464;2023-04-15T03:15:59;7.65;;;6.63;;
29838;SDS011;18669;53.356;-1.464;2023-04-15T03:18:44;9.35;;;6.70;;
29838;SDS011;18669;53.356;-1.464;2023-04-15T03:21:29;8.90;;;6.78;;
29838;SDS011;18669;53.356;-1.464;2023-04-15T03:24:14;10.05;;;7.32;;
29838;SDS011;18669;53.356;-1.464;2023-04-15T03:26:59;11.95;;;7.22;;
29838;SDS011;18669;53.356;-1.464;2023-04-15T03:29:45;10.68;;;6.72;;
29838;SDS011;18669;53.356;-1.464;2023-04-15T03:32:29;11.15;;;7.30;;
29838;SDS011;18669;53.356;-1.464;2023-04-15T03:35:15;10.77;;;7.95;;
29838;SDS011;18669;53.356;-1.464;2023-04-15T03:37:59;11.27;;;8.25;;
29838;SDS011;18669;53.356;-1.464;2023-04-15T03:40:45;14.85;;;9.25;;
29838;SDS011;18669;53.356;-1.464;2023-04-15T03:43:30;11.65;;;8.68;;
29838;SDS011;18669;53.356;-1.464;2023-04-15T03:46:15;12.65;;;9.23;;
29838;SDS011;18669;53.356;-1.464;2023-04-15T03:49:00;14.43;;;9.40;;
29838;SDS011;18669;53.356;-1.464;2023-04-15T03:51:45;13.40;;;9.23;;
29838;SDS011;18669;53.356;-1.464;2023-04-15T03:54:30;12.48;;;8.88;;
29838;SDS011;18669;53.356;-1.464;2023-04-15T03:57:15;15.07;;;9.60;;
29838;SDS011;18669;53.356;-1.464;2023-04-15T04:00:00;12.70;;;8.63;;
29838;SDS011;18669;53.356;-1.464;2023-04-15T04:02:45;12.40;;;9.38;;
29838;SDS011;18669;53.356;-1.464;2023-04-15T04:05:30;13.07;;;9.27;;
29838;SDS011;18669;53.356;-1.464;2023-04-15T04:08:15;12.85;;;8.98;;
29838;SDS011;18669;53.356;-1.464;2023-04-15T04:11:00;9.45;;;7.28;;
29838;SDS011;18669;53.356;-1.464;2023-04-15T04:13:45;11.10;;;8.13;;
29838;SDS011;18669;53.356;-1.464;2023-04-15T04:16:30;12.02;;;7.72;;
29838;SDS011;18669;53.356;-1.464;2023-04-15T04:19:15;9.63;;;6.82;;
29838;SDS011;18669;53.356;-1.464;2023-04-15T04:22:02;11.18;;;7.35;;
29838;SDS011;18669;53.356;-1.464;2023-04-15T04:24:47;9.35;;;6.55;;
29838;SDS011;18669;53.356;-1.464;2023-04-15T04:27:33;9.32;;;6.68;;
29838;SDS011;18669;53.356;-1.464;2023-04-15T04:30:18;10.73;;;7.07;;
29838;SDS011;18669;53.356;-1.464;2023-04-15T04:33:02;9.30;;;7.03;;
29838;SDS011;18669;53.356;-1.464;2023-04-15T04:35:47;9.82;;;7.57;;
29838;SDS011;18669;53.356;-1.464;2023-04-15T04:38:32;9.52;;;7.30;;
29838;SDS011;18669;53.356;-1.464;2023-04-15T04:41:17;10.38;;;7.50;;
29838;SDS011;18669;53.356;-1.464;2023-04-15T04:44:02;10.55;;;7.65;;
29838;SDS011;18669;53.356;-1.464;2023-04-15T04:46:47;11.65;;;7.30;;
29838;SDS011;18669;53.356;-1.464;2023-04-15T04:49:32;12.30;;;7.57;;
29838;SDS011;18669;53.356;-1.464;2023-04-15T04:52:17;11.05;;;8.10;;
29838;SDS011;18669;53.356;-1.464;2023-04-15T04:55:02;12.68;;;7.30;;
29838;SDS011;18669;53.356;-1.464;2023-04-15T04:57:47;10.48;;;7.70;;
29838;SDS011;18669;53.356;-1.464;2023-04-15T05:00:31;10.20;;;7.72;;
29838;SDS011;18669;53.356;-1.464;2023-04-15T05:03:17;11.80;;;8.07;;
29838;SDS011;18669;53.356;-1.464;2023-04-15T05:06:01;11.18;;;7.85;;
29838;SDS011;18669;53.356;-1.464;2023-04-15T05:11:33;11.52;;;8.18;;
29838;SDS011;18669;53.356;-1.464;2023-04-15T05:14:18;10.73;;;8.10;;
29838;SDS011;18669;53.356;-1.464;2023-04-15T05:17:03;13.50;;;8.88;;
29838;SDS011;18669;53.356;-1.464;2023-04-15T05:19:48;14.77;;;8.80;;
29838;SDS011;18669;53.356;-1.464;2023-04-15T05:22:33;14.75;;;9.00;;
29838;SDS011;18669;53.356;-1.464;2023-04-15T05:25:18;12.15;;;8.20;;
29838;SDS011;18669;53.356;-1.464;2023-04-15T05:28:03;12.00;;;7.65;;
29838;SDS011;18669;53.356;-1.464;2023-04-15T05:30:48;12.23;;;8.40;;
29838;SDS011;18669;53.356;-1.464;2023-04-15T05:33:32;12.25;;;8.85;;
29838;SDS011;18669;53.356;-1.464;2023-04-15T05:36:17;12.57;;;8.00;;
29838;SDS011;18669;53.356;-1.464;2023-04-15T05:39:02;12.27;;;8.57;;
29838;SDS011;18669;53.356;-1.464;2023-04-15T05:41:47;14.27;;;8.82;;
29838;SDS011;18669;53.356;-1.464;2023-04-15T05:44:32;13.25;;;8.57;;
29838;SDS011;18669;53.356;-1.464;2023-04-15T05:47:17;11.60;;;8.38;;
29838;SDS011;18669;53.356;-1.464;2023-04-15T05:50:03;13.73;;;8.55;;
29838;SDS011;18669;53.356;-1.464;2023-04-15T05:52:48;13.00;;;8.60;;
29838;SDS011;18669;53.356;-1.464;2023-04-15T05:55:33;13.05;;;8.25;;
29838;SDS011;18669;53.356;-1.464;2023-04-15T05:58:18;13.35;;;8.57;;
29838;SDS011;18669;53.356;-1.464;2023-04-15T06:01:03;14.07;;;8.45;;
29838;SDS011;18669;53.356;-1.464;2023-04-15T06:03:48;12.23;;;8.35;;
29838;SDS011;18669;53.356;-1.464;2023-04-15T06:06:33;11.25;;;8.10;;
29838;SDS011;18669;53.356;-1.464;2023-04-15T06:09:18;12.55;;;8.35;;
29838;SDS011;18669;53.356;-1.464;2023-04-15T06:12:04;12.38;;;8.27;;
29838;SDS011;18669;53.356;-1.464;2023-04-15T06:14:55;10.25;;;8.25;;
29838;SDS011;18669;53.356;-1.464;2023-04-15T06:17:42;16.37;;;8.63;;
29838;SDS011;18669;53.356;-1.464;2023-04-15T06:20:28;14.68;;;9.07;;
29838;SDS011;18669;53.356;-1.464;2023-04-15T06:23:13;11.60;;;7.90;;
29838;SDS011;18669;53.356;-1.464;2023-04-15T06:25:57;12.70;;;8.40;;
29838;SDS011;18669;53.356;-1.464;2023-04-15T06:28:42;12.07;;;8.30;;
29838;SDS011;18669;53.356;-1.464;2023-04-15T06:31:27;10.65;;;7.80;;
29838;SDS011;18669;53.356;-1.464;2023-04-15T06:34:12;12.27;;;7.90;;
29838;SDS011;18669;53.356;-1.464;2023-04-15T06:36:57;11.63;;;8.70;;
29838;SDS011;18669;53.356;-1.464;2023-04-15T06:39:42;11.05;;;8.00;;
29838;SDS011;18669;53.356;-1.464;2023-04-15T06:42:27;10.70;;;7.65;;
29838;SDS011;18669;53.356;-1.464;2023-04-15T06:45:12;14.00;;;8.20;;
29838;SDS011;18669;53.356;-1.464;2023-04-15T06:47:57;12.98;;;8.50;;
29838;SDS011;18669;53.356;-1.464;2023-04-15T06:50:42;12.20;;;8.50;;
29838;SDS011;18669;53.356;-1.464;2023-04-15T06:53:27;12.23;;;8.45;;
29838;SDS011;18669;53.356;-1.464;2023-04-15T06:56:12;11.27;;;8.00;;
29838;SDS011;18669;53.356;-1.464;2023-04-15T06:58:57;13.00;;;8.43;;
29838;SDS011;18669;53.356;-1.464;2023-04-15T07:01:42;13.02;;;8.73;;
29838;SDS011;18669;53.356;-1.464;2023-04-15T07:04:27;10.73;;;8.32;;
29838;SDS011;18669;53.356;-1.464;2023-04-15T07:07:11;13.20;;;8.07;;
29838;SDS011;18669;53.356;-1.464;2023-04-15T07:09:56;11.88;;;8.18;;
29838;SDS011;18669;53.356;-1.464;2023-04-15T07:12:41;14.25;;;8.85;;
29838;SDS011;18669;53.356;-1.464;2023-04-15T07:15:26;11.52;;;8.00;;
29838;SDS011;18669;53.356;-1.464;2023-04-15T07:18:11;16.95;;;9.02;;
29838;SDS011;18669;53.356;-1.464;2023-04-15T07:20:56;12.85;;;8.40;;
29838;SDS011;18669;53.356;-1.464;2023-04-15T07:23:41;14.07;;;8.13;;
29838;SDS011;18669;53.356;-1.464;2023-04-15T07:26:26;13.77;;;8.30;;
29838;SDS011;18669;53.356;-1.464;2023-04-15T07:29:11;11.80;;;7.97;;
29838;SDS011;18669;53.356;-1.464;2023-04-15T07:31:56;12.75;;;8.82;;
29838;SDS011;18669;53.356;-1.464;2023-04-15T07:34:41;12.88;;;8.63;;
29838;SDS011;18669;53.356;-1.464;2023-04-15T07:37:26;14.93;;;8.93;;
29838;SDS011;18669;53.356;-1.464;2023-04-15T07:40:11;13.02;;;8.43;;
29838;SDS011;18669;53.356;-1.464;2023-04-15T07:42:57;11.25;;;8.00;;
29838;SDS011;18669;53.356;-1.464;2023-04-15T07:45:42;17.77;;;8.70;;
29838;SDS011;18669;53.356;-1.464;2023-04-15T07:48:27;12.52;;;7.32;;
29838;SDS011;18669;53.356;-1.464;2023-04-15T07:51:12;20.58;;;14.43;;
29838;SDS011;18669;53.356;-1.464;2023-04-15T07:53:57;16.83;;;9.00;;
29838;SDS011;18669;53.356;-1.464;2023-04-15T07:56:42;9.93;;;7.30;;
29838;SDS011;18669;53.356;-1.464;2023-04-15T07:59:28;14.90;;;8.48;;
29838;SDS011;18669;53.356;-1.464;2023-04-15T08:02:14;12.95;;;7.60;;
29838;SDS011;18669;53.356;-1.464;2023-04-15T08:04:59;10.73;;;7.20;;
29838;SDS011;18669;53.356;-1.464;2023-04-15T08:07:46;14.18;;;7.35;;
29838;SDS011;18669;53.356;-1.464;2023-04-15T08:10:31;13.55;;;8.35;;
29838;SDS011;18669;53.356;-1.464;2023-04-15T08:13:16;12.32;;;8.18;;
29838;SDS011;18669;53.356;-1.464;2023-04-15T08:19:15;14.00;;;7.75;;
29838;SDS011;18669;53.356;-1.464;2023-04-15T08:22:00;14.40;;;8.07;;
29838;SDS011;18669;53.356;-1.464;2023-04-15T08:24:45;11.77;;;7.15;;
29838;SDS011;18669;53.356;-1.464;2023-04-15T08:27:30;14.52;;;7.78;;
29838;SDS011;18669;53.356;-1.464;2023-04-15T08:30:15;13.00;;;8.38;;
29838;SDS011;18669;53.356;-1.464;2023-04-15T08:33:00;13.60;;;7.60;;
29838;SDS011;18669;53.356;-1.464;2023-04-15T08:35:45;12.57;;;7.43;;
29838;SDS011;18669;53.356;-1.464;2023-04-15T08:38:30;11.70;;;6.82;;
29838;SDS011;18669;53.356;-1.464;2023-04-15T08:41:17;11.35;;;6.25;;
29838;SDS011;18669;53.356;-1.464;2023-04-15T08:44:06;12.05;;;7.05;;
29838;SDS011;18669;53.356;-1.464;2023-04-15T08:46:52;7.78;;;5.82;;
29838;SDS011;18669;53.356;-1.464;2023-04-15T08:49:39;8.35;;;5.90;;
29838;SDS011;18669;53.356;-1.464;2023-04-15T08:52:26;12.02;;;6.93;;
29838;SDS011;18669;53.356;-1.464;2023-04-15T08:55:11;12.20;;;7.20;;
29838;SDS011;18669;53.356;-1.464;2023-04-15T08:57:57;14.32;;;6.88;;
29838;SDS011;18669;53.356;-1.464;2023-04-15T09:00:42;10.52;;;6.40;;
29838;SDS011;18669;53.356;-1.464;2023-04-15T09:03:27;10.55;;;6.40;;
29838;SDS011;18669;53.356;-1.464;2023-04-15T09:06:12;10.27;;;5.95;;
29838;SDS011;18669;53.356;-1.464;2023-04-15T09:08:57;9.70;;;6.50;;
29838;SDS011;18669;53.356;-1.464;2023-04-15T09:11:42;11.13;;;6.63;;
29838;SDS011;18669;53.356;-1.464;2023-04-15T09:14:27;13.35;;;7.18;;
29838;SDS011;18669;53.356;-1.464;2023-04-15T09:17:17;9.50;;;6.47;;
29838;SDS011;18669;53.356;-1.464;2023-04-15T09:20:10;14.13;;;7.10;;
29838;SDS011;18669;53.356;-1.464;2023-04-15T09:22:59;8.95;;;5.53;;
29838;SDS011;18669;53.356;-1.464;2023-04-15T09:25:44;12.13;;;7.00;;
29838;SDS011;18669;53.356;-1.464;2023-04-15T09:28:29;13.93;;;6.05;;
29838;SDS011;18669;53.356;-1.464;2023-04-15T09:31:14;9.52;;;5.47;;
29838;SDS011;18669;53.356;-1.464;2023-04-15T09:34:00;12.27;;;5.32;;
29838;SDS011;18669;53.356;-1.464;2023-04-15T09:39:46;9.27;;;5.40;;
29838;SDS011;18669;53.356;-1.464;2023-04-15T09:42:33;7.72;;;4.53;;
29838;SDS011;18669;53.356;-1.464;2023-04-15T09:45:18;11.77;;;4.32;;
29838;SDS011;18669;53.356;-1.464;2023-04-15T09:48:19;13.68;;;4.82;;
29838;SDS011;18669;53.356;-1.464;2023-04-15T09:51:05;8.32;;;4.35;;
29838;SDS011;18669;53.356;-1.464;2023-04-15T09:53:50;7.57;;;4.50;;
29838;SDS011;18669;53.356;-1.464;2023-04-15T09:56:38;8.50;;;3.42;;
29838;SDS011;18669;53.356;-1.464;2023-04-15T09:59:26;8.23;;;3.47;;
29838;SDS011;18669;53.356;-1.464;2023-04-15T10:02:11;8.88;;;3.80;;
29838;SDS011;18669;53.356;-1.464;2023-04-15T10:04:57;13.15;;;4.47;;
29838;SDS011;18669;53.356;-1.464;2023-04-15T10:07:44;8.45;;;4.05;;
29838;SDS011;18669;53.356;-1.464;2023-04-15T10:10:30;11.82;;;5.15;;
29838;SDS011;18669;53.356;-1.464;2023-04-15T10:13:23;8.60;;;4.70;;
29838;SDS011;18669;53.356;-1.464;2023-04-15T10:16:13;12.20;;;5.22;;
29838;SDS011;18669;53.356;-1.464;2023-04-15T10:19:00;10.10;;;4.50;;
29838;SDS011;18669;53.356;-1.464;2023-04-15T10:21:45;10.93;;;4.60;;
29838;SDS011;18669;53.356;-1.464;2023-04-15T10:24:31;6.47;;;4.65;;
29838;SDS011;18669;53.356;-1.464;2023-04-15T10:27:16;10.32;;;4.90;;
29838;SDS011;18669;53.356;-1.464;2023-04-15T10:30:05;8.00;;;4.38;;
29838;SDS011;18669;53.356;-1.464;2023-04-15T10:35:37;11.15;;;5.03;;
29838;SDS011;18669;53.356;-1.464;2023-04-15T10:38:42;8.98;;;4.80;;
29838;SDS011;18669;53.356;-1.464;2023-04-15T10:41:28;9.85;;;5.03;;
29838;SDS011;18669;53.356;-1.464;2023-04-15T10:44:14;13.35;;;5.57;;
29838;SDS011;18669;53.356;-1.464;2023-04-15T10:47:00;10.38;;;5.63;;
29838;SDS011;18669;53.356;-1.464;2023-04-15T10:49:56;13.07;;;5.30;;
29838;SDS011;18669;53.356;-1.464;2023-04-15T10:52:49;10.57;;;4.90;;
29838;SDS011;18669;53.356;-1.464;2023-04-15T10:55:37;9.65;;;4.38;;
29838;SDS011;18669;53.356;-1.464;2023-04-15T10:58:26;6.72;;;4.68;;
29838;SDS011;18669;53.356;-1.464;2023-04-15T11:04:54;6.68;;;3.15;;
29838;SDS011;18669;53.356;-1.464;2023-04-15T11:07:53;7.35;;;3.70;;
29838;SDS011;18669;53.356;-1.464;2023-04-15T11:13:25;10.38;;;3.95;;
29838;SDS011;18669;53.356;-1.464;2023-04-15T11:16:12;9.90;;;4.25;;
29838;SDS011;18669;53.356;-1.464;2023-04-15T11:18:58;7.32;;;3.30;;
29838;SDS011;18669;53.356;-1.464;2023-04-15T11:21:44;16.27;;;4.10;;
29838;SDS011;18669;53.356;-1.464;2023-04-15T11:24:29;6.07;;;3.97;;
29838;SDS011;18669;53.356;-1.464;2023-04-15T11:27:21;9.05;;;3.95;;
29838;SDS011;18669;53.356;-1.464;2023-04-15T11:30:18;7.07;;;3.63;;
29838;SDS011;18669;53.356;-1.464;2023-04-15T11:33:11;6.30;;;3.47;;
29838;SDS011;18669;53.356;-1.464;2023-04-15T11:35:57;9.70;;;4.00;;
29838;SDS011;18669;53.356;-1.464;2023-04-15T11:38:42;6.78;;;3.40;;
29838;SDS011;18669;53.356;-1.464;2023-04-15T11:41:30;7.10;;;3.80;;
29838;SDS011;18669;53.356;-1.464;2023-04-15T11:44:16;7.90;;;3.45;;
29838;SDS011;18669;53.356;-1.464;2023-04-15T11:47:20;8.98;;;3.78;;
29838;SDS011;18669;53.356;-1.464;2023-04-15T11:50:18;7.30;;;3.50;;
29838;SDS011;18669;53.356;-1.464;2023-04-15T11:53:05;9.80;;;3.35;;
29838;SDS011;18669;53.356;-1.464;2023-04-15T11:55:54;7.88;;;3.47;;
29838;SDS011;18669;53.356;-1.464;2023-04-15T11:58:39;7.60;;;3.65;;
29838;SDS011;18669;53.356;-1.464;2023-04-15T12:04:17;5.38;;;3.10;;
29838;SDS011;18669;53.356;-1.464;2023-04-15T12:07:05;5.32;;;3.03;;
29838;SDS011;18669;53.356;-1.464;2023-04-15T12:09:54;5.03;;;3.35;;
29838;SDS011;18669;53.356;-1.464;2023-04-15T12:15:39;7.47;;;4.10;;
29838;SDS011;18669;53.356;-1.464;2023-04-15T12:18:25;5.75;;;3.42;;
29838;SDS011;18669;53.356;-1.464;2023-04-15T12:21:10;7.38;;;3.58;;
29838;SDS011;18669;53.356;-1.464;2023-04-15T12:24:00;9.13;;;3.28;;
29838;SDS011;18669;53.356;-1.464;2023-04-15T12:26:47;8.65;;;4.32;;
29838;SDS011;18669;53.356;-1.464;2023-04-15T12:29:42;7.22;;;5.32;;
29838;SDS011;18669;53.356;-1.464;2023-04-15T12:32:27;7.63;;;3.40;;
29838;SDS011;18669;53.356;-1.464;2023-04-15T12:35:12;7.05;;;2.92;;
29838;SDS011;18669;53.356;-1.464;2023-04-15T12:38:01;8.25;;;5.22;;
29838;SDS011;18669;53.356;-1.464;2023-04-15T12:40:46;5.00;;;3.20;;
29838;SDS011;18669;53.356;-1.464;2023-04-15T12:43:30;8.45;;;3.60;;
29838;SDS011;18669;53.356;-1.464;2023-04-15T12:46:15;5.72;;;3.55;;
29838;SDS011;18669;53.356;-1.464;2023-04-15T12:49:00;6.90;;;3.65;;
29838;SDS011;18669;53.356;-1.464;2023-04-15T12:51:51;7.32;;;4.03;;
29838;SDS011;18669;53.356;-1.464;2023-04-15T12:54:38;7.90;;;2.80;;
29838;SDS011;18669;53.356;-1.464;2023-04-15T12:57:22;8.68;;;3.88;;
29838;SDS011;18669;53.356;-1.464;2023-04-15T13:00:07;5.75;;;3.30;;
29838;SDS011;18669;53.356;-1.464;2023-04-15T13:02:53;8.57;;;3.57;;
29838;SDS011;18669;53.356;-1.464;2023-04-15T13:05:38;5.22;;;3.30;;
29838;SDS011;18669;53.356;-1.464;2023-04-15T13:08:23;9.98;;;3.80;;
29838;SDS011;18669;53.356;-1.464;2023-04-15T13:11:08;9.05;;;3.58;;
29838;SDS011;18669;53.356;-1.464;2023-04-15T13:13:54;6.40;;;3.40;;
29838;SDS011;18669;53.356;-1.464;2023-04-15T13:16:40;7.15;;;3.72;;
29838;SDS011;18669;53.356;-1.464;2023-04-15T13:19:25;8.32;;;3.78;;
29838;SDS011;18669;53.356;-1.464;2023-04-15T13:22:10;5.90;;;3.28;;
29838;SDS011;18669;53.356;-1.464;2023-04-15T13:24:55;6.82;;;3.70;;
29838;SDS011;18669;53.356;-1.464;2023-04-15T13:27:40;6.70;;;3.60;;
29838;SDS011;18669;53.356;-1.464;2023-04-15T13:30:25;6.90;;;3.58;;
29838;SDS011;18669;53.356;-1.464;2023-04-15T13:33:10;7.22;;;3.95;;
29838;SDS011;18669;53.356;-1.464;2023-04-15T13:35:55;4.68;;;3.40;;
29838;SDS011;18669;53.356;-1.464;2023-04-15T13:38:40;6.45;;;3.72;;
29838;SDS011;18669;53.356;-1.464;2023-04-15T13:41:25;10.07;;;3.70;;
29838;SDS011;18669;53.356;-1.464;2023-04-15T13:44:10;6.18;;;3.85;;
29838;SDS011;18669;53.356;-1.464;2023-04-15T13:46:55;8.32;;;3.97;;
29838;SDS011;18669;53.356;-1.464;2023-04-15T13:49:40;6.10;;;3.30;;
29838;SDS011;18669;53.356;-1.464;2023-04-15T13:52:25;9.35;;;4.03;;
29838;SDS011;18669;53.356;-1.464;2023-04-15T13:55:10;9.73;;;3.97;;
29838;SDS011;18669;53.356;-1.464;2023-04-15T13:57:55;5.95;;;3.15;;
29838;SDS011;18669;53.356;-1.464;2023-04-15T14:00:40;7.78;;;3.22;;
29838;SDS011;18669;53.356;-1.464;2023-04-15T14:03:25;4.50;;;3.03;;
29838;SDS011;18669;53.356;-1.464;2023-04-15T14:06:10;11.80;;;4.32;;
29838;SDS011;18669;53.356;-1.464;2023-04-15T14:08:55;5.53;;;3.63;;
29838;SDS011;18669;53.356;-1.464;2023-04-15T14:11:40;5.80;;;3.20;;
29838;SDS011;18669;53.356;-1.464;2023-04-15T14:14:25;8.93;;;3.60;;
29838;SDS011;18669;53.356;-1.464;2023-04-15T14:17:10;12.15;;;4.43;;
29838;SDS011;18669;53.356;-1.464;2023-04-15T14:19:55;6.65;;;3.88;;
29838;SDS011;18669;53.356;-1.464;2023-04-15T14:22:40;11.30;;;3.95;;
29838;SDS011;18669;53.356;-1.464;2023-04-15T14:25:26;7.70;;;3.65;;
29838;SDS011;18669;53.356;-1.464;2023-04-15T14:28:11;5.97;;;3.03;;
29838;SDS011;18669;53.356;-1.464;2023-04-15T14:30:56;7.88;;;3.60;;
29838;SDS011;18669;53.356;-1.464;2023-04-15T14:33:40;4.07;;;3.20;;
29838;SDS011;18669;53.356;-1.464;2023-04-15T14:36:25;7.97;;;3.55;;
29838;SDS011;18669;53.356;-1.464;2023-04-15T14:39:10;7.38;;;3.40;;
29838;SDS011;18669;53.356;-1.464;2023-04-15T14:41:57;8.57;;;3.38;;
29838;SDS011;18669;53.356;-1.464;2023-04-15T14:44:42;5.68;;;2.88;;
29838;SDS011;18669;53.356;-1.464;2023-04-15T14:47:28;4.40;;;2.83;;
29838;SDS011;18669;53.356;-1.464;2023-04-15T14:50:13;6.03;;;3.15;;
29838;SDS011;18669;53.356;-1.464;2023-04-15T14:52:57;5.22;;;3.10;;
29838;SDS011;18669;53.356;-1.464;2023-04-15T14:55:42;7.53;;;3.92;;
29838;SDS011;18669;53.356;-1.464;2023-04-15T14:58:28;6.88;;;3.20;;
29838;SDS011;18669;53.356;-1.464;2023-04-15T15:01:13;6.47;;;3.63;;
29838;SDS011;18669;53.356;-1.464;2023-04-15T15:03:58;30.10;;;3.90;;
29838;SDS011;18669;53.356;-1.464;2023-04-15T15:06:42;6.47;;;3.28;;
29838;SDS011;18669;53.356;-1.464;2023-04-15T15:09:27;6.85;;;3.00;;
29838;SDS011;18669;53.356;-1.464;2023-04-15T15:12:13;5.72;;;3.10;;
29838;SDS011;18669;53.356;-1.464;2023-04-15T15:14:58;6.38;;;2.78;;
29838;SDS011;18669;53.356;-1.464;2023-04-15T15:17:43;6.57;;;3.05;;
29838;SDS011;18669;53.356;-1.464;2023-04-15T15:20:30;5.80;;;3.00;;
29838;SDS011;18669;53.356;-1.464;2023-04-15T15:23:16;5.80;;;2.77;;
29838;SDS011;18669;53.356;-1.464;2023-04-15T15:26:01;10.85;;;3.22;;
29838;SDS011;18669;53.356;-1.464;2023-04-15T15:28:46;4.43;;;3.00;;
29838;SDS011;18669;53.356;-1.464;2023-04-15T15:31:33;6.18;;;2.92;;
29838;SDS011;18669;53.356;-1.464;2023-04-15T15:34:18;9.07;;;4.25;;
29838;SDS011;18669;53.356;-1.464;2023-04-15T15:37:03;4.68;;;2.80;;
29838;SDS011;18669;53.356;-1.464;2023-04-15T15:39:48;3.83;;;2.47;;
29838;SDS011;18669;53.356;-1.464;2023-04-15T15:42:33;4.25;;;2.70;;
29838;SDS011;18669;53.356;-1.464;2023-04-15T15:45:19;6.70;;;2.88;;
29838;SDS011;18669;53.356;-1.464;2023-04-15T15:48:04;6.93;;;2.78;;
29838;SDS011;18669;53.356;-1.464;2023-04-15T15:50:50;2.50;;;2.30;;
29838;SDS011;18669;53.356;-1.464;2023-04-15T15:53:35;5.82;;;2.78;;
29838;SDS011;18669;53.356;-1.464;2023-04-15T15:56:20;3.08;;;2.47;;
29838;SDS011;18669;53.356;-1.464;2023-04-15T15:59:05;4.45;;;2.75;;
29838;SDS011;18669;53.356;-1.464;2023-04-15T16:01:50;6.90;;;2.90;;
29838;SDS011;18669;53.356;-1.464;2023-04-15T16:04:35;8.93;;;3.25;;
29838;SDS011;18669;53.356;-1.464;2023-04-15T16:07:21;6.30;;;3.28;;
29838;SDS011;18669;53.356;-1.464;2023-04-15T16:10:06;7.93;;;3.40;;
29838;SDS011;18669;53.356;-1.464;2023-04-15T16:12:51;5.30;;;2.95;;
29838;SDS011;18669;53.356;-1.464;2023-04-15T16:15:36;4.93;;;2.90;;
29838;SDS011;18669;53.356;-1.464;2023-04-15T16:18:21;7.65;;;3.15;;
29838;SDS011;18669;53.356;-1.464;2023-04-15T16:21:06;6.25;;;3.13;;
29838;SDS011;18669;53.356;-1.464;2023-04-15T16:23:53;11.55;;;3.05;;
29838;SDS011;18669;53.356;-1.464;2023-04-15T16:26:38;3.85;;;2.40;;
29838;SDS011;18669;53.356;-1.464;2023-04-15T16:29:24;5.47;;;3.03;;
29838;SDS011;18669;53.356;-1.464;2023-04-15T16:32:09;5.40;;;3.78;;
29838;SDS011;18669;53.356;-1.464;2023-04-15T16:34:54;9.32;;;3.65;;
29838;SDS011;18669;53.356;-1.464;2023-04-15T16:37:39;4.30;;;2.50;;
29838;SDS011;18669;53.356;-1.464;2023-04-15T16:40:24;7.35;;;3.42;;